Rucphen, Netherlands
Current Conditions -  °F | °C
As of 12:55 PM on Monday 24 Nov 2014 (Local Time) from EHWO Reporting Station
Few Clouds Few Clouds  
Wind Chill: 52°   Ceiling: Unl
Heat Index: 52°   Visibility: 6mi
Dew Point: 41°   Wind: 7mph
Humidity: 67%   Direction: 280°W
Pressure: 30.3"   Gusts: NA
Location:  51.53°N, 4.56°E
Report Text: EHWO 241155Z AUTO 28006KT 9999 NCD 11/05 Q1026 BLU 27004KT 9999 FEW030
Loading
Personal Weather Stations






























Interactive Weather Map New forecast layout! Learn more

10-Day Weather Forecast

Advertisements
Track Severe Weather on mobile